sensor_id;sensor_type;location;lat;lon;timestamp;P1;durP1;ratioP1;P2;durP2;ratioP2
72198;SDS011;60103;51.014;16.992;2023-08-07T00:02:14;7.60;;;2.10;;
72198;SDS011;60103;51.014;16.992;2023-08-07T00:04:42;9.50;;;2.60;;
72198;SDS011;60103;51.014;16.992;2023-08-07T00:07:09;6.50;;;2.10;;
72198;SDS011;60103;51.014;16.992;2023-08-07T00:09:37;6.20;;;2.10;;
72198;SDS011;60103;51.014;16.992;2023-08-07T00:12:04;6.50;;;2.00;;
72198;SDS011;60103;51.014;16.992;2023-08-07T00:14:32;8.40;;;2.00;;
72198;SDS011;60103;51.014;16.992;2023-08-07T00:16:59;6.20;;;2.10;;
72198;SDS011;60103;51.014;16.992;2023-08-07T00:19:27;6.10;;;1.80;;
72198;SDS011;60103;51.014;16.992;2023-08-07T00:21:54;8.10;;;2.20;;
72198;SDS011;60103;51.014;16.992;2023-08-07T00:24:22;6.10;;;1.90;;
72198;SDS011;60103;51.014;16.992;2023-08-07T00:26:49;5.80;;;1.80;;
72198;SDS011;60103;51.014;16.992;2023-08-07T00:29:16;6.90;;;1.90;;
72198;SDS011;60103;51.014;16.992;2023-08-07T00:31:44;9.10;;;2.10;;
72198;SDS011;60103;51.014;16.992;2023-08-07T00:34:13;6.70;;;1.90;;
72198;SDS011;60103;51.014;16.992;2023-08-07T00:36:40;6.20;;;2.10;;
72198;SDS011;60103;51.014;16.992;2023-08-07T00:39:07;7.30;;;2.00;;
72198;SDS011;60103;51.014;16.992;2023-08-07T00:41:39;6.60;;;2.00;;
72198;SDS011;60103;51.014;16.992;2023-08-07T00:44:07;7.10;;;2.00;;
72198;SDS011;60103;51.014;16.992;2023-08-07T00:46:34;6.70;;;1.90;;
72198;SDS011;60103;51.014;16.992;2023-08-07T00:49:03;6.60;;;1.80;;
72198;SDS011;60103;51.014;16.992;2023-08-07T00:51:31;6.60;;;1.90;;
72198;SDS011;60103;51.014;16.992;2023-08-07T00:53:59;6.10;;;2.10;;
72198;SDS011;60103;51.014;16.992;2023-08-07T00:56:29;5.80;;;1.70;;
72198;SDS011;60103;51.014;16.992;2023-08-07T00:58:59;7.10;;;2.10;;
72198;SDS011;60103;51.014;16.992;2023-08-07T01:01:28;8.00;;;1.80;;
72198;SDS011;60103;51.014;16.992;2023-08-07T01:03:56;6.90;;;1.80;;
72198;SDS011;60103;51.014;16.992;2023-08-07T01:06:24;6.80;;;2.00;;
72198;SDS011;60103;51.014;16.992;2023-08-07T01:08:53;6.00;;;1.90;;
72198;SDS011;60103;51.014;16.992;2023-08-07T01:17:14;7.70;;;1.80;;
72198;SDS011;60103;51.014;16.992;2023-08-07T01:19:42;7.80;;;2.20;;
72198;SDS011;60103;51.014;16.992;2023-08-07T01:22:12;6.40;;;2.10;;
72198;SDS011;60103;51.014;16.992;2023-08-07T01:24:45;5.60;;;1.80;;
72198;SDS011;60103;51.014;16.992;2023-08-07T01:35:36;9.90;;;2.20;;
72198;SDS011;60103;51.014;16.992;2023-08-07T01:38:10;6.20;;;2.00;;
72198;SDS011;60103;51.014;16.992;2023-08-07T01:40:40;9.10;;;2.40;;
72198;SDS011;60103;51.014;16.992;2023-08-07T01:43:07;7.20;;;2.10;;
72198;SDS011;60103;51.014;16.992;2023-08-07T01:45:36;6.40;;;2.10;;
72198;SDS011;60103;51.014;16.992;2023-08-07T01:48:03;9.40;;;2.40;;
72198;SDS011;60103;51.014;16.992;2023-08-07T01:50:32;7.10;;;2.10;;
72198;SDS011;60103;51.014;16.992;2023-08-07T01:53:00;7.00;;;2.30;;
72198;SDS011;60103;51.014;16.992;2023-08-07T01:55:29;7.40;;;2.00;;
72198;SDS011;60103;51.014;16.992;2023-08-07T01:57:57;8.80;;;2.70;;
72198;SDS011;60103;51.014;16.992;2023-08-07T02:00:24;6.90;;;2.10;;
72198;SDS011;60103;51.014;16.992;2023-08-07T02:02:52;8.00;;;2.50;;
72198;SDS011;60103;51.014;16.992;2023-08-07T02:05:20;8.40;;;2.30;;
72198;SDS011;60103;51.014;16.992;2023-08-07T02:07:47;7.60;;;2.40;;
72198;SDS011;60103;51.014;16.992;2023-08-07T02:10:15;7.10;;;2.20;;
72198;SDS011;60103;51.014;16.992;2023-08-07T02:12:42;7.20;;;2.30;;
72198;SDS011;60103;51.014;16.992;2023-08-07T02:15:10;7.50;;;2.60;;
72198;SDS011;60103;51.014;16.992;2023-08-07T02:17:37;7.40;;;2.30;;
72198;SDS011;60103;51.014;16.992;2023-08-07T02:20:08;8.20;;;2.40;;
72198;SDS011;60103;51.014;16.992;2023-08-07T02:22:36;6.50;;;2.20;;
72198;SDS011;60103;51.014;16.992;2023-08-07T02:25:05;7.80;;;2.50;;
72198;SDS011;60103;51.014;16.992;2023-08-07T02:27:33;6.70;;;2.30;;
72198;SDS011;60103;51.014;16.992;2023-08-07T02:30:01;8.80;;;2.30;;
72198;SDS011;60103;51.014;16.992;2023-08-07T02:32:31;10.80;;;3.20;;
72198;SDS011;60103;51.014;16.992;2023-08-07T02:34:58;8.70;;;2.40;;
72198;SDS011;60103;51.014;16.992;2023-08-07T02:37:26;9.60;;;2.70;;
72198;SDS011;60103;51.014;16.992;2023-08-07T02:39:53;8.70;;;2.70;;
72198;SDS011;60103;51.014;16.992;2023-08-07T02:42:21;9.50;;;2.60;;
72198;SDS011;60103;51.014;16.992;2023-08-07T02:44:49;10.60;;;3.10;;
72198;SDS011;60103;51.014;16.992;2023-08-07T02:47:16;8.30;;;3.00;;
72198;SDS011;60103;51.014;16.992;2023-08-07T02:49:45;7.40;;;2.70;;
72198;SDS011;60103;51.014;16.992;2023-08-07T02:52:13;7.70;;;2.90;;
72198;SDS011;60103;51.014;16.992;2023-08-07T02:54:40;7.60;;;3.00;;
72198;SDS011;60103;51.014;16.992;2023-08-07T02:57:08;7.90;;;3.10;;
72198;SDS011;60103;51.014;16.992;2023-08-07T02:59:36;8.90;;;3.20;;
72198;SDS011;60103;51.014;16.992;2023-08-07T03:02:03;7.60;;;3.00;;
72198;SDS011;60103;51.014;16.992;2023-08-07T03:04:31;7.40;;;2.70;;
72198;SDS011;60103;51.014;16.992;2023-08-07T03:06:59;7.80;;;3.10;;
72198;SDS011;60103;51.014;16.992;2023-08-07T03:09:27;10.10;;;3.60;;
72198;SDS011;60103;51.014;16.992;2023-08-07T03:11:55;8.10;;;3.40;;
72198;SDS011;60103;51.014;16.992;2023-08-07T03:14:22;8.80;;;3.80;;
72198;SDS011;60103;51.014;16.992;2023-08-07T03:16:50;8.70;;;3.40;;
72198;SDS011;60103;51.014;16.992;2023-08-07T03:19:17;7.90;;;3.40;;
72198;SDS011;60103;51.014;16.992;2023-08-07T03:21:49;8.00;;;3.20;;
72198;SDS011;60103;51.014;16.992;2023-08-07T03:24:16;8.90;;;3.40;;
72198;SDS011;60103;51.014;16.992;2023-08-07T03:26:44;9.80;;;3.80;;
72198;SDS011;60103;51.014;16.992;2023-08-07T03:29:13;8.40;;;3.30;;
72198;SDS011;60103;51.014;16.992;2023-08-07T03:31:41;8.50;;;3.70;;
72198;SDS011;60103;51.014;16.992;2023-08-07T03:34:09;9.00;;;3.70;;
72198;SDS011;60103;51.014;16.992;2023-08-07T03:36:37;9.40;;;3.90;;
72198;SDS011;60103;51.014;16.992;2023-08-07T03:39:04;8.50;;;3.50;;
72198;SDS011;60103;51.014;16.992;2023-08-07T03:41:32;8.00;;;3.30;;
72198;SDS011;60103;51.014;16.992;2023-08-07T03:44:00;8.40;;;3.40;;
72198;SDS011;60103;51.014;16.992;2023-08-07T03:46:28;8.50;;;3.40;;
72198;SDS011;60103;51.014;16.992;2023-08-07T03:48:56;8.00;;;3.30;;
72198;SDS011;60103;51.014;16.992;2023-08-07T03:51:23;8.10;;;3.20;;
72198;SDS011;60103;51.014;16.992;2023-08-07T03:53:52;10.70;;;3.50;;
72198;SDS011;60103;51.014;16.992;2023-08-07T03:56:20;7.30;;;3.00;;
72198;SDS011;60103;51.014;16.992;2023-08-07T03:58:48;8.30;;;3.00;;
72198;SDS011;60103;51.014;16.992;2023-08-07T04:01:17;7.60;;;3.30;;
72198;SDS011;60103;51.014;16.992;2023-08-07T04:03:46;10.50;;;3.50;;
72198;SDS011;60103;51.014;16.992;2023-08-07T04:06:15;8.80;;;3.60;;
72198;SDS011;60103;51.014;16.992;2023-08-07T04:08:44;8.10;;;3.40;;
72198;SDS011;60103;51.014;16.992;2023-08-07T04:11:12;8.40;;;3.50;;
72198;SDS011;60103;51.014;16.992;2023-08-07T04:13:40;7.90;;;3.20;;
72198;SDS011;60103;51.014;16.992;2023-08-07T04:16:08;9.20;;;3.80;;
72198;SDS011;60103;51.014;16.992;2023-08-07T04:18:35;8.20;;;3.60;;
72198;SDS011;60103;51.014;16.992;2023-08-07T04:21:03;8.30;;;3.80;;
72198;SDS011;60103;51.014;16.992;2023-08-07T04:23:31;7.80;;;3.40;;
72198;SDS011;60103;51.014;16.992;2023-08-07T04:25:59;8.40;;;3.70;;
72198;SDS011;60103;51.014;16.992;2023-08-07T04:28:30;7.70;;;3.20;;
72198;SDS011;60103;51.014;16.992;2023-08-07T04:30:58;8.00;;;3.50;;
72198;SDS011;60103;51.014;16.992;2023-08-07T04:33:25;9.90;;;3.30;;
72198;SDS011;60103;51.014;16.992;2023-08-07T04:35:53;8.50;;;3.20;;
72198;SDS011;60103;51.014;16.992;2023-08-07T04:38:21;7.60;;;3.00;;
72198;SDS011;60103;51.014;16.992;2023-08-07T04:40:49;8.40;;;3.30;;
72198;SDS011;60103;51.014;16.992;2023-08-07T04:43:17;9.00;;;3.70;;
72198;SDS011;60103;51.014;16.992;2023-08-07T04:45:48;9.60;;;3.90;;
72198;SDS011;60103;51.014;16.992;2023-08-07T04:48:16;10.00;;;4.20;;
72198;SDS011;60103;51.014;16.992;2023-08-07T04:50:45;8.20;;;3.60;;
72198;SDS011;60103;51.014;16.992;2023-08-07T04:53:13;8.10;;;3.30;;
72198;SDS011;60103;51.014;16.992;2023-08-07T04:55:41;9.10;;;4.00;;
72198;SDS011;60103;51.014;16.992;2023-08-07T04:58:08;8.30;;;3.70;;
72198;SDS011;60103;51.014;16.992;2023-08-07T05:00:36;8.40;;;3.60;;
72198;SDS011;60103;51.014;16.992;2023-08-07T05:03:03;8.30;;;3.70;;
72198;SDS011;60103;51.014;16.992;2023-08-07T05:05:31;9.10;;;3.90;;
72198;SDS011;60103;51.014;16.992;2023-08-07T05:07:59;9.30;;;3.30;;
72198;SDS011;60103;51.014;16.992;2023-08-07T05:10:27;8.00;;;3.20;;
72198;SDS011;60103;51.014;16.992;2023-08-07T05:12:55;7.70;;;3.30;;
72198;SDS011;60103;51.014;16.992;2023-08-07T05:15:23;7.50;;;2.90;;
72198;SDS011;60103;51.014;16.992;2023-08-07T05:17:51;8.40;;;3.60;;
72198;SDS011;60103;51.014;16.992;2023-08-07T05:20:19;9.20;;;3.90;;
72198;SDS011;60103;51.014;16.992;2023-08-07T05:22:46;7.90;;;3.30;;
72198;SDS011;60103;51.014;16.992;2023-08-07T05:25:15;7.60;;;3.30;;
72198;SDS011;60103;51.014;16.992;2023-08-07T05:27:44;10.00;;;3.50;;
72198;SDS011;60103;51.014;16.992;2023-08-07T05:30:12;10.00;;;4.20;;
72198;SDS011;60103;51.014;16.992;2023-08-07T05:32:41;7.90;;;3.20;;
72198;SDS011;60103;51.014;16.992;2023-08-07T05:35:09;9.20;;;3.60;;
72198;SDS011;60103;51.014;16.992;2023-08-07T05:37:37;7.90;;;3.30;;
72198;SDS011;60103;51.014;16.992;2023-08-07T05:40:05;7.80;;;3.10;;
72198;SDS011;60103;51.014;16.992;2023-08-07T05:42:34;7.00;;;2.80;;
72198;SDS011;60103;51.014;16.992;2023-08-07T05:45:02;8.70;;;3.00;;
72198;SDS011;60103;51.014;16.992;2023-08-07T05:47:32;7.70;;;2.60;;
72198;SDS011;60103;51.014;16.992;2023-08-07T05:50:00;7.70;;;2.70;;
72198;SDS011;60103;51.014;16.992;2023-08-07T05:52:28;7.60;;;2.70;;
72198;SDS011;60103;51.014;16.992;2023-08-07T05:54:56;7.70;;;2.30;;
72198;SDS011;60103;51.014;16.992;2023-08-07T05:57:24;6.60;;;2.40;;
72198;SDS011;60103;51.014;16.992;2023-08-07T05:59:51;7.10;;;2.60;;
72198;SDS011;60103;51.014;16.992;2023-08-07T06:02:18;8.40;;;2.20;;
72198;SDS011;60103;51.014;16.992;2023-08-07T06:04:46;6.30;;;2.20;;
72198;SDS011;60103;51.014;16.992;2023-08-07T06:07:15;6.80;;;2.20;;
72198;SDS011;60103;51.014;16.992;2023-08-07T06:09:43;6.10;;;2.10;;
72198;SDS011;60103;51.014;16.992;2023-08-07T06:12:11;6.40;;;2.30;;
72198;SDS011;60103;51.014;16.992;2023-08-07T06:14:39;6.10;;;2.10;;
72198;SDS011;60103;51.014;16.992;2023-08-07T06:17:07;6.40;;;2.00;;
72198;SDS011;60103;51.014;16.992;2023-08-07T06:19:34;6.30;;;2.30;;
72198;SDS011;60103;51.014;16.992;2023-08-07T06:22:02;7.70;;;2.00;;
72198;SDS011;60103;51.014;16.992;2023-08-07T06:24:30;6.90;;;2.00;;
72198;SDS011;60103;51.014;16.992;2023-08-07T06:26:57;6.30;;;1.80;;
72198;SDS011;60103;51.014;16.992;2023-08-07T06:29:25;6.50;;;2.00;;
72198;SDS011;60103;51.014;16.992;2023-08-07T06:31:53;8.70;;;2.30;;
72198;SDS011;60103;51.014;16.992;2023-08-07T06:34:20;6.30;;;2.20;;
72198;SDS011;60103;51.014;16.992;2023-08-07T06:36:48;6.90;;;2.30;;
72198;SDS011;60103;51.014;16.992;2023-08-07T06:39:17;6.70;;;2.20;;
72198;SDS011;60103;51.014;16.992;2023-08-07T06:41:45;6.30;;;2.40;;
72198;SDS011;60103;51.014;16.992;2023-08-07T06:44:13;7.20;;;1.90;;
72198;SDS011;60103;51.014;16.992;2023-08-07T06:46:41;6.90;;;2.50;;
72198;SDS011;60103;51.014;16.992;2023-08-07T06:49:08;6.90;;;2.20;;
72198;SDS011;60103;51.014;16.992;2023-08-07T06:51:36;8.50;;;2.40;;
72198;SDS011;60103;51.014;16.992;2023-08-07T06:54:03;7.10;;;2.30;;
72198;SDS011;60103;51.014;16.992;2023-08-07T06:56:31;5.80;;;1.70;;
72198;SDS011;60103;51.014;16.992;2023-08-07T06:58:58;7.90;;;1.80;;
72198;SDS011;60103;51.014;16.992;2023-08-07T07:01:25;7.40;;;1.90;;
72198;SDS011;60103;51.014;16.992;2023-08-07T07:03:53;7.30;;;2.00;;
72198;SDS011;60103;51.014;16.992;2023-08-07T07:06:21;9.00;;;2.00;;
72198;SDS011;60103;51.014;16.992;2023-08-07T07:08:50;6.30;;;1.90;;
72198;SDS011;60103;51.014;16.992;2023-08-07T07:11:18;7.50;;;1.90;;
72198;SDS011;60103;51.014;16.992;2023-08-07T07:13:48;5.60;;;1.70;;
72198;SDS011;60103;51.014;16.992;2023-08-07T07:16:20;6.00;;;2.00;;
72198;SDS011;60103;51.014;16.992;2023-08-07T07:18:53;6.00;;;1.90;;
72198;SDS011;60103;51.014;16.992;2023-08-07T07:21:23;5.20;;;1.50;;
72198;SDS011;60103;51.014;16.992;2023-08-07T07:23:50;5.40;;;1.50;;
72198;SDS011;60103;51.014;16.992;2023-08-07T07:26:19;5.60;;;1.40;;
72198;SDS011;60103;51.014;16.992;2023-08-07T07:28:47;6.20;;;1.60;;
72198;SDS011;60103;51.014;16.992;2023-08-07T07:31:14;6.10;;;1.90;;
72198;SDS011;60103;51.014;16.992;2023-08-07T07:33:43;6.40;;;1.70;;
72198;SDS011;60103;51.014;16.992;2023-08-07T07:36:17;6.20;;;1.90;;
72198;SDS011;60103;51.014;16.992;2023-08-07T07:38:47;6.70;;;1.80;;
72198;SDS011;60103;51.014;16.992;2023-08-07T07:41:15;5.70;;;1.80;;
72198;SDS011;60103;51.014;16.992;2023-08-07T07:43:43;6.20;;;1.60;;
72198;SDS011;60103;51.014;16.992;2023-08-07T07:46:11;7.10;;;2.00;;
72198;SDS011;60103;51.014;16.992;2023-08-07T07:48:39;6.70;;;1.70;;
72198;SDS011;60103;51.014;16.992;2023-08-07T07:51:07;6.60;;;1.80;;
72198;SDS011;60103;51.014;16.992;2023-08-07T07:53:35;7.70;;;2.20;;
72198;SDS011;60103;51.014;16.992;2023-08-07T07:56:03;7.20;;;2.10;;
72198;SDS011;60103;51.014;16.992;2023-08-07T07:58:31;5.80;;;1.80;;
72198;SDS011;60103;51.014;16.992;2023-08-07T08:00:58;6.70;;;2.10;;
72198;SDS011;60103;51.014;16.992;2023-08-07T08:03:27;5.70;;;1.80;;
72198;SDS011;60103;51.014;16.992;2023-08-07T08:05:55;6.40;;;2.30;;
72198;SDS011;60103;51.014;16.992;2023-08-07T08:08:23;6.00;;;1.80;;
72198;SDS011;60103;51.014;16.992;2023-08-07T08:10:54;6.70;;;1.70;;
72198;SDS011;60103;51.014;16.992;2023-08-07T08:13:22;6.90;;;1.60;;
72198;SDS011;60103;51.014;16.992;2023-08-07T08:15:51;7.10;;;2.20;;
72198;SDS011;60103;51.014;16.992;2023-08-07T08:18:18;6.30;;;2.30;;
72198;SDS011;60103;51.014;16.992;2023-08-07T08:20:46;6.20;;;2.10;;
72198;SDS011;60103;51.014;16.992;2023-08-07T08:23:14;6.90;;;2.00;;
72198;SDS011;60103;51.014;16.992;2023-08-07T08:25:41;7.40;;;2.10;;
72198;SDS011;60103;51.014;16.992;2023-08-07T08:28:09;6.70;;;1.90;;
72198;SDS011;60103;51.014;16.992;2023-08-07T08:30:36;7.20;;;2.20;;
72198;SDS011;60103;51.014;16.992;2023-08-07T08:33:04;6.00;;;1.80;;
72198;SDS011;60103;51.014;16.992;2023-08-07T08:35:33;7.50;;;2.60;;
72198;SDS011;60103;51.014;16.992;2023-08-07T08:38:00;7.20;;;2.40;;
72198;SDS011;60103;51.014;16.992;2023-08-07T08:40:30;7.10;;;2.00;;
72198;SDS011;60103;51.014;16.992;2023-08-07T08:43:01;8.80;;;2.50;;
72198;SDS011;60103;51.014;16.992;2023-08-07T08:45:30;8.40;;;2.10;;
72198;SDS011;60103;51.014;16.992;2023-08-07T08:48:03;7.50;;;2.70;;
72198;SDS011;60103;51.014;16.992;2023-08-07T08:50:32;7.70;;;2.10;;
72198;SDS011;60103;51.014;16.992;2023-08-07T08:53:01;9.60;;;2.50;;
72198;SDS011;60103;51.014;16.992;2023-08-07T08:55:30;7.80;;;2.40;;
72198;SDS011;60103;51.014;16.992;2023-08-07T08:57:59;7.10;;;2.30;;
72198;SDS011;60103;51.014;16.992;2023-08-07T09:00:27;7.30;;;2.30;;
72198;SDS011;60103;51.014;16.992;2023-08-07T09:02:57;6.90;;;2.40;;
72198;SDS011;60103;51.014;16.992;2023-08-07T09:05:24;7.80;;;2.00;;
72198;SDS011;60103;51.014;16.992;2023-08-07T09:07:52;6.40;;;2.30;;
72198;SDS011;60103;51.014;16.992;2023-08-07T09:10:19;7.90;;;2.40;;
72198;SDS011;60103;51.014;16.992;2023-08-07T09:12:59;6.90;;;2.60;;
72198;SDS011;60103;51.014;16.992;2023-08-07T09:15:28;8.20;;;2.80;;
72198;SDS011;60103;51.014;16.992;2023-08-07T09:17:57;6.80;;;2.30;;
72198;SDS011;60103;51.014;16.992;2023-08-07T09:20:26;6.90;;;2.40;;
72198;SDS011;60103;51.014;16.992;2023-08-07T09:22:54;6.70;;;2.70;;
72198;SDS011;60103;51.014;16.992;2023-08-07T09:25:29;7.10;;;2.60;;
72198;SDS011;60103;51.014;16.992;2023-08-07T09:27:58;7.30;;;2.40;;
72198;SDS011;60103;51.014;16.992;2023-08-07T09:30:31;5.90;;;1.90;;
72198;SDS011;60103;51.014;16.992;2023-08-07T09:33:00;7.10;;;2.20;;
72198;SDS011;60103;51.014;16.992;2023-08-07T09:35:29;7.20;;;2.40;;
72198;SDS011;60103;51.014;16.992;2023-08-07T09:37:58;7.90;;;2.80;;
72198;SDS011;60103;51.014;16.992;2023-08-07T09:40:25;6.00;;;2.50;;
72198;SDS011;60103;51.014;16.992;2023-08-07T09:42:53;7.20;;;2.60;;
72198;SDS011;60103;51.014;16.992;2023-08-07T09:45:22;7.60;;;2.70;;
72198;SDS011;60103;51.014;16.992;2023-08-07T09:48:01;8.20;;;2.70;;
72198;SDS011;60103;51.014;16.992;2023-08-07T09:50:30;6.90;;;2.40;;
72198;SDS011;60103;51.014;16.992;2023-08-07T09:52:59;10.30;;;2.60;;
72198;SDS011;60103;51.014;16.992;2023-08-07T09:55:27;6.30;;;2.10;;
72198;SDS011;60103;51.014;16.992;2023-08-07T09:57:55;7.10;;;2.10;;
72198;SDS011;60103;51.014;16.992;2023-08-07T10:00:23;6.90;;;2.10;;
72198;SDS011;60103;51.014;16.992;2023-08-07T10:02:53;6.60;;;2.20;;
72198;SDS011;60103;51.014;16.992;2023-08-07T10:05:21;6.70;;;2.00;;
72198;SDS011;60103;51.014;16.992;2023-08-07T10:07:50;6.20;;;1.90;;
72198;SDS011;60103;51.014;16.992;2023-08-07T10:10:18;7.00;;;1.80;;
72198;SDS011;60103;51.014;16.992;2023-08-07T10:12:47;6.80;;;2.30;;
72198;SDS011;60103;51.014;16.992;2023-08-07T10:15:16;8.00;;;2.40;;
72198;SDS011;60103;51.014;16.992;2023-08-07T10:17:45;6.10;;;2.20;;
72198;SDS011;60103;51.014;16.992;2023-08-07T10:20:13;5.70;;;1.90;;
72198;SDS011;60103;51.014;16.992;2023-08-07T10:22:40;7.00;;;2.40;;
72198;SDS011;60103;51.014;16.992;2023-08-07T10:25:09;6.90;;;1.90;;
72198;SDS011;60103;51.014;16.992;2023-08-07T10:27:37;6.90;;;2.10;;
72198;SDS011;60103;51.014;16.992;2023-08-07T10:30:08;6.30;;;2.30;;
72198;SDS011;60103;51.014;16.992;2023-08-07T10:32:41;6.10;;;2.20;;
72198;SDS011;60103;51.014;16.992;2023-08-07T10:35:10;5.70;;;1.60;;
72198;SDS011;60103;51.014;16.992;2023-08-07T10:37:53;7.20;;;1.90;;
72198;SDS011;60103;51.014;16.992;2023-08-07T10:40:21;7.70;;;1.70;;
72198;SDS011;60103;51.014;16.992;2023-08-07T10:45:40;7.00;;;2.20;;
72198;SDS011;60103;51.014;16.992;2023-08-07T10:48:08;6.20;;;2.20;;
72198;SDS011;60103;51.014;16.992;2023-08-07T10:51:23;5.40;;;1.50;;
72198;SDS011;60103;51.014;16.992;2023-08-07T10:53:36;5.80;;;2.10;;
72198;SDS011;60103;51.014;16.992;2023-08-07T10:56:09;6.10;;;1.70;;
72198;SDS011;60103;51.014;16.992;2023-08-07T10:58:57;6.00;;;1.80;;
72198;SDS011;60103;51.014;16.992;2023-08-07T11:04:09;5.80;;;1.70;;
72198;SDS011;60103;51.014;16.992;2023-08-07T11:06:39;6.00;;;2.00;;
72198;SDS011;60103;51.014;16.992;2023-08-07T11:09:08;5.70;;;2.00;;
72198;SDS011;60103;51.014;16.992;2023-08-07T11:11:38;6.40;;;1.80;;
72198;SDS011;60103;51.014;16.992;2023-08-07T11:14:10;6.60;;;1.80;;
72198;SDS011;60103;51.014;16.992;2023-08-07T11:16:39;6.30;;;2.00;;
72198;SDS011;60103;51.014;16.992;2023-08-07T11:19:07;7.40;;;1.90;;
72198;SDS011;60103;51.014;16.992;2023-08-07T11:21:36;6.90;;;1.90;;
72198;SDS011;60103;51.014;16.992;2023-08-07T11:24:04;6.50;;;1.80;;
72198;SDS011;60103;51.014;16.992;2023-08-07T11:26:32;5.00;;;1.60;;
72198;SDS011;60103;51.014;16.992;2023-08-07T11:28:59;5.80;;;1.70;;
72198;SDS011;60103;51.014;16.992;2023-08-07T11:31:27;5.90;;;1.90;;
72198;SDS011;60103;51.014;16.992;2023-08-07T11:33:56;5.50;;;1.60;;
72198;SDS011;60103;51.014;16.992;2023-08-07T11:36:29;6.80;;;1.80;;
72198;SDS011;60103;51.014;16.992;2023-08-07T11:38:58;6.60;;;1.80;;
72198;SDS011;60103;51.014;16.992;2023-08-07T11:41:26;6.60;;;2.00;;
72198;SDS011;60103;51.014;16.992;2023-08-07T11:43:54;5.60;;;1.90;;
72198;SDS011;60103;51.014;16.992;2023-08-07T11:46:21;7.40;;;1.90;;
72198;SDS011;60103;51.014;16.992;2023-08-07T11:48:49;5.20;;;1.50;;
72198;SDS011;60103;51.014;16.992;2023-08-07T11:51:19;7.60;;;1.80;;
72198;SDS011;60103;51.014;16.992;2023-08-07T11:53:47;5.90;;;1.80;;
72198;SDS011;60103;51.014;16.992;2023-08-07T11:56:15;5.80;;;1.40;;
72198;SDS011;60103;51.014;16.992;2023-08-07T11:58:44;5.90;;;1.90;;
72198;SDS011;60103;51.014;16.992;2023-08-07T12:01:17;6.00;;;1.70;;
72198;SDS011;60103;51.014;16.992;2023-08-07T12:03:55;5.40;;;1.30;;
72198;SDS011;60103;51.014;16.992;2023-08-07T12:06:24;5.70;;;2.00;;
72198;SDS011;60103;51.014;16.992;2023-08-07T12:08:53;5.50;;;1.60;;
72198;SDS011;60103;51.014;16.992;2023-08-07T12:11:22;5.70;;;2.00;;
72198;SDS011;60103;51.014;16.992;2023-08-07T12:13:51;6.40;;;2.20;;
72198;SDS011;60103;51.014;16.992;2023-08-07T12:16:19;6.60;;;2.10;;
72198;SDS011;60103;51.014;16.992;2023-08-07T12:18:47;6.40;;;1.90;;
72198;SDS011;60103;51.014;16.992;2023-08-07T12:21:17;6.10;;;1.80;;
72198;SDS011;60103;51.014;16.992;2023-08-07T12:23:50;5.40;;;1.80;;
72198;SDS011;60103;51.014;16.992;2023-08-07T12:26:18;7.60;;;1.90;;
72198;SDS011;60103;51.014;16.992;2023-08-07T12:28:46;6.00;;;1.80;;
72198;SDS011;60103;51.014;16.992;2023-08-07T12:31:13;5.10;;;1.70;;
72198;SDS011;60103;51.014;16.992;2023-08-07T12:33:41;5.20;;;1.70;;
72198;SDS011;60103;51.014;16.992;2023-08-07T12:36:08;5.80;;;1.70;;
72198;SDS011;60103;51.014;16.992;2023-08-07T12:38:40;6.60;;;2.20;;
72198;SDS011;60103;51.014;16.992;2023-08-07T12:41:08;7.10;;;2.00;;
72198;SDS011;60103;51.014;16.992;2023-08-07T12:43:56;6.20;;;2.00;;
72198;SDS011;60103;51.014;16.992;2023-08-07T12:46:23;7.70;;;2.30;;
72198;SDS011;60103;51.014;16.992;2023-08-07T12:48:54;6.70;;;1.90;;
72198;SDS011;60103;51.014;16.992;2023-08-07T12:51:21;6.90;;;2.30;;
72198;SDS011;60103;51.014;16.992;2023-08-07T12:53:49;6.00;;;1.70;;
72198;SDS011;60103;51.014;16.992;2023-08-07T12:56:18;6.60;;;2.10;;
72198;SDS011;60103;51.014;16.992;2023-08-07T12:58:46;6.30;;;2.20;;
72198;SDS011;60103;51.014;16.992;2023-08-07T13:01:14;6.20;;;2.20;;
72198;SDS011;60103;51.014;16.992;2023-08-07T13:03:41;6.60;;;2.20;;
72198;SDS011;60103;51.014;16.992;2023-08-07T13:06:09;6.90;;;1.90;;
72198;SDS011;60103;51.014;16.992;2023-08-07T13:08:39;6.10;;;2.00;;
72198;SDS011;60103;51.014;16.992;2023-08-07T13:11:06;6.40;;;2.20;;
72198;SDS011;60103;51.014;16.992;2023-08-07T13:13:34;6.60;;;1.90;;
72198;SDS011;60103;51.014;16.992;2023-08-07T13:16:01;5.90;;;1.90;;
72198;SDS011;60103;51.014;16.992;2023-08-07T13:18:29;6.10;;;1.80;;
72198;SDS011;60103;51.014;16.992;2023-08-07T13:20:57;6.10;;;1.80;;
72198;SDS011;60103;51.014;16.992;2023-08-07T13:23:25;5.30;;;1.70;;
72198;SDS011;60103;51.014;16.992;2023-08-07T13:25:53;6.80;;;1.90;;
72198;SDS011;60103;51.014;16.992;2023-08-07T13:28:22;6.00;;;1.80;;
72198;SDS011;60103;51.014;16.992;2023-08-07T13:30:50;6.70;;;2.10;;
72198;SDS011;60103;51.014;16.992;2023-08-07T13:33:18;5.80;;;1.80;;
72198;SDS011;60103;51.014;16.992;2023-08-07T13:35:47;5.40;;;2.00;;
72198;SDS011;60103;51.014;16.992;2023-08-07T13:38:15;5.80;;;1.90;;
72198;SDS011;60103;51.014;16.992;2023-08-07T13:40:45;6.20;;;2.30;;
72198;SDS011;60103;51.014;16.992;2023-08-07T13:43:13;6.10;;;2.10;;
72198;SDS011;60103;51.014;16.992;2023-08-07T13:45:40;5.10;;;1.60;;
72198;SDS011;60103;51.014;16.992;2023-08-07T13:48:09;6.10;;;1.60;;
72198;SDS011;60103;51.014;16.992;2023-08-07T13:50:37;5.40;;;1.80;;
72198;SDS011;60103;51.014;16.992;2023-08-07T13:53:05;6.50;;;1.90;;
72198;SDS011;60103;51.014;16.992;2023-08-07T13:55:43;5.90;;;1.70;;
72198;SDS011;60103;51.014;16.992;2023-08-07T13:58:12;5.60;;;1.70;;
72198;SDS011;60103;51.014;16.992;2023-08-07T14:00:44;6.80;;;1.80;;
72198;SDS011;60103;51.014;16.992;2023-08-07T14:03:13;7.40;;;1.80;;
72198;SDS011;60103;51.014;16.992;2023-08-07T14:05:42;5.00;;;1.60;;
72198;SDS011;60103;51.014;16.992;2023-08-07T14:08:11;6.80;;;1.80;;
72198;SDS011;60103;51.014;16.992;2023-08-07T14:10:39;5.60;;;1.50;;
72198;SDS011;60103;51.014;16.992;2023-08-07T14:13:10;4.40;;;1.60;;
72198;SDS011;60103;51.014;16.992;2023-08-07T14:15:39;4.00;;;1.30;;
72198;SDS011;60103;51.014;16.992;2023-08-07T14:18:08;4.90;;;1.50;;
72198;SDS011;60103;51.014;16.992;2023-08-07T14:20:36;4.60;;;1.20;;
72198;SDS011;60103;51.014;16.992;2023-08-07T14:23:25;5.10;;;1.10;;
72198;SDS011;60103;51.014;16.992;2023-08-07T14:25:55;3.90;;;1.20;;
72198;SDS011;60103;51.014;16.992;2023-08-07T14:28:23;4.50;;;1.20;;
72198;SDS011;60103;51.014;16.992;2023-08-07T14:30:51;3.70;;;1.20;;
72198;SDS011;60103;51.014;16.992;2023-08-07T14:33:21;3.60;;;1.00;;
72198;SDS011;60103;51.014;16.992;2023-08-07T14:35:48;3.30;;;0.90;;
72198;SDS011;60103;51.014;16.992;2023-08-07T14:38:16;3.90;;;0.90;;
72198;SDS011;60103;51.014;16.992;2023-08-07T14:40:44;2.90;;;0.80;;
72198;SDS011;60103;51.014;16.992;2023-08-07T14:43:12;4.30;;;0.90;;
72198;SDS011;60103;51.014;16.992;2023-08-07T14:45:40;2.90;;;0.70;;
72198;SDS011;60103;51.014;16.992;2023-08-07T14:48:07;4.20;;;0.90;;
72198;SDS011;60103;51.014;16.992;2023-08-07T14:50:35;4.60;;;0.80;;
72198;SDS011;60103;51.014;16.992;2023-08-07T14:53:03;3.20;;;0.80;;
72198;SDS011;60103;51.014;16.992;2023-08-07T14:55:31;3.10;;;0.60;;
72198;SDS011;60103;51.014;16.992;2023-08-07T14:58:00;2.70;;;0.80;;
72198;SDS011;60103;51.014;16.992;2023-08-07T15:00:28;4.20;;;0.70;;
72198;SDS011;60103;51.014;16.992;2023-08-07T15:02:56;2.30;;;0.60;;